sensor_id;sensor_type;location;lat;lon;timestamp;pressure;altitude;pressure_sealevel;temperature;humidity
55187;BME280;55457;52.002;5.464;2023-12-20T00:01:19;101353.38;;;22.63;44.01
55187;BME280;55457;52.002;5.464;2023-12-20T00:03:44;101344.13;;;22.64;44.03
55187;BME280;55457;52.002;5.464;2023-12-20T00:06:10;101336.25;;;22.63;44.10
55187;BME280;55457;52.002;5.464;2023-12-20T00:08:35;101326.19;;;22.63;44.10
55187;BME280;55457;52.002;5.464;2023-12-20T00:11:01;101332.72;;;22.62;44.22
55187;BME280;55457;52.002;5.464;2023-12-20T00:13:26;101332.44;;;22.64;44.04
55187;BME280;55457;52.002;5.464;2023-12-20T00:15:52;101327.03;;;22.64;44.35
55187;BME280;55457;52.002;5.464;2023-12-20T00:18:17;101325.38;;;22.63;44.19
55187;BME280;55457;52.002;5.464;2023-12-20T00:20:42;101331.63;;;22.63;43.98
55187;BME280;55457;52.002;5.464;2023-12-20T00:23:08;101327.03;;;22.64;44.21
55187;BME280;55457;52.002;5.464;2023-12-20T00:25:34;101330.00;;;22.62;44.17
55187;BME280;55457;52.002;5.464;2023-12-20T00:28:00;101327.84;;;22.64;44.09
55187;BME280;55457;52.002;5.464;2023-12-20T00:30:25;101328.66;;;22.65;44.22
55187;BME280;55457;52.002;5.464;2023-12-20T00:32:51;101323.22;;;22.65;43.83
55187;BME280;55457;52.002;5.464;2023-12-20T00:35:17;101325.94;;;22.65;43.87
55187;BME280;55457;52.002;5.464;2023-12-20T00:37:43;101336.81;;;22.65;44.08
55187;BME280;55457;52.002;5.464;2023-12-20T00:40:09;101340.34;;;22.65;44.17
55187;BME280;55457;52.002;5.464;2023-12-20T00:42:34;101340.34;;;22.65;43.90
55187;BME280;55457;52.002;5.464;2023-12-20T00:45:01;101337.63;;;22.65;44.10
55187;BME280;55457;52.002;5.464;2023-12-20T00:47:28;101328.66;;;22.65;44.11
55187;BME280;55457;52.002;5.464;2023-12-20T00:49:53;101328.66;;;22.65;44.08
55187;BME280;55457;52.002;5.464;2023-12-20T00:52:19;101338.72;;;22.64;44.14
55187;BME280;55457;52.002;5.464;2023-12-20T00:54:44;101330.56;;;22.64;43.78
55187;BME280;55457;52.002;5.464;2023-12-20T00:57:10;101326.19;;;22.63;43.88
55187;BME280;55457;52.002;5.464;2023-12-20T00:59:35;101330.00;;;22.62;44.00
55187;BME280;55457;52.002;5.464;2023-12-20T01:02:01;101325.38;;;22.63;44.02
55187;BME280;55457;52.002;5.464;2023-12-20T01:04:26;101330.00;;;22.62;44.05
55187;BME280;55457;52.002;5.464;2023-12-20T01:06:52;101324.56;;;22.62;44.12
55187;BME280;55457;52.002;5.464;2023-12-20T01:09:18;101316.41;;;22.62;43.84
55187;BME280;55457;52.002;5.464;2023-12-20T01:11:44;101321.84;;;22.62;43.97
55187;BME280;55457;52.002;5.464;2023-12-20T01:14:09;101314.78;;;22.61;43.95
55187;BME280;55457;52.002;5.464;2023-12-20T01:16:34;101312.06;;;22.61;43.72
55187;BME280;55457;52.002;5.464;2023-12-20T01:19:00;101319.38;;;22.61;43.99
55187;BME280;55457;52.002;5.464;2023-12-20T01:21:25;101322.91;;;22.61;43.93
55187;BME280;55457;52.002;5.464;2023-12-20T01:23:51;101328.34;;;22.61;44.15
55187;BME280;55457;52.002;5.464;2023-12-20T01:26:16;101331.06;;;22.61;43.78
55187;BME280;55457;52.002;5.464;2023-12-20T01:28:42;101330.25;;;22.61;44.20
55187;BME280;55457;52.002;5.464;2023-12-20T01:31:08;101330.47;;;22.59;43.86
55187;BME280;55457;52.002;5.464;2023-12-20T01:33:34;101326.72;;;22.60;44.07
55187;BME280;55457;52.002;5.464;2023-12-20T01:35:59;101325.03;;;22.59;44.06
55187;BME280;55457;52.002;5.464;2023-12-20T01:38:25;101327.75;;;22.59;44.12
55187;BME280;55457;52.002;5.464;2023-12-20T01:40:50;101330.72;;;22.58;43.88
55187;BME280;55457;52.002;5.464;2023-12-20T01:43:16;101324.22;;;22.59;44.19
55187;BME280;55457;52.002;5.464;2023-12-20T01:45:41;101322.56;;;22.58;44.13
55187;BME280;55457;52.002;5.464;2023-12-20T01:48:08;101321.75;;;22.57;43.81
55187;BME280;55457;52.002;5.464;2023-12-20T01:50:36;101333.69;;;22.56;43.79
55187;BME280;55457;52.002;5.464;2023-12-20T01:53:02;101330.97;;;22.56;44.05
55187;BME280;55457;52.002;5.464;2023-12-20T01:55:31;101329.91;;;22.57;44.02
55187;BME280;55457;52.002;5.464;2023-12-20T01:57:59;101322.84;;;22.56;44.02
55187;BME280;55457;52.002;5.464;2023-12-20T02:00:26;101319.53;;;22.54;44.03
55187;BME280;55457;52.002;5.464;2023-12-20T02:02:53;101324.94;;;22.54;43.84
55187;BME280;55457;52.002;5.464;2023-12-20T02:05:20;101317.06;;;22.53;43.76
55187;BME280;55457;52.002;5.464;2023-12-20T02:07:46;101321.66;;;22.52;44.14
55187;BME280;55457;52.002;5.464;2023-12-20T02:10:12;101313.53;;;22.52;43.98
55187;BME280;55457;52.002;5.464;2023-12-20T02:12:38;101318.97;;;22.52;44.11
55187;BME280;55457;52.002;5.464;2023-12-20T02:15:04;101326.53;;;22.50;44.01
55187;BME280;55457;52.002;5.464;2023-12-20T02:17:31;101321.94;;;22.51;43.69
55187;BME280;55457;52.002;5.464;2023-12-20T02:19:57;101313.78;;;22.51;44.03
55187;BME280;55457;52.002;5.464;2023-12-20T02:22:22;101320.03;;;22.51;43.93
55187;BME280;55457;52.002;5.464;2023-12-20T02:24:47;101321.09;;;22.50;44.08
55187;BME280;55457;52.002;5.464;2023-12-20T02:27:15;101309.16;;;22.51;44.05
55187;BME280;55457;52.002;5.464;2023-12-20T02:29:43;101300.69;;;22.48;44.19
55187;BME280;55457;52.002;5.464;2023-12-20T02:32:08;101300.69;;;22.48;43.85
55187;BME280;55457;52.002;5.464;2023-12-20T02:34:34;101303.13;;;22.49;43.80
55187;BME280;55457;52.002;5.464;2023-12-20T02:36:59;101301.50;;;22.48;43.71
55187;BME280;55457;52.002;5.464;2023-12-20T02:39:25;101306.09;;;22.48;43.90
55187;BME280;55457;52.002;5.464;2023-12-20T02:41:51;101304.47;;;22.47;43.95
55187;BME280;55457;52.002;5.464;2023-12-20T02:44:16;101305.53;;;22.46;44.18
55187;BME280;55457;52.002;5.464;2023-12-20T02:46:41;101296.31;;;22.47;43.86
55187;BME280;55457;52.002;5.464;2023-12-20T02:49:07;101300.69;;;22.48;44.23
55187;BME280;55457;52.002;5.464;2023-12-20T02:51:32;101296.31;;;22.47;44.25
55187;BME280;55457;52.002;5.464;2023-12-20T02:53:57;101295.50;;;22.46;44.12
55187;BME280;55457;52.002;5.464;2023-12-20T02:56:23;101299.03;;;22.47;44.29
55187;BME280;55457;52.002;5.464;2023-12-20T02:58:48;101296.59;;;22.45;44.24
55187;BME280;55457;52.002;5.464;2023-12-20T03:01:13;101291.72;;;22.47;44.00
55187;BME280;55457;52.002;5.464;2023-12-20T03:03:39;101277.31;;;22.47;43.88
55187;BME280;55457;52.002;5.464;2023-12-20T03:06:04;101274.84;;;22.45;44.12
55187;BME280;55457;52.002;5.464;2023-12-20T03:08:30;101274.84;;;22.45;43.80
55187;BME280;55457;52.002;5.464;2023-12-20T03:10:55;101268.56;;;22.45;44.19
55187;BME280;55457;52.002;5.464;2023-12-20T03:13:20;101267.75;;;22.44;44.20
55187;BME280;55457;52.002;5.464;2023-12-20T03:15:46;101258.47;;;22.40;43.91
55187;BME280;55457;52.002;5.464;2023-12-20T03:18:11;101281.59;;;22.43;44.06
55187;BME280;55457;52.002;5.464;2023-12-20T03:20:37;101278.03;;;22.42;43.81
55187;BME280;55457;52.002;5.464;2023-12-20T03:23:03;101280.75;;;22.42;43.96
55187;BME280;55457;52.002;5.464;2023-12-20T03:25:29;101275.34;;;22.42;43.84
55187;BME280;55457;52.002;5.464;2023-12-20T03:27:54;101268.25;;;22.41;44.16
55187;BME280;55457;52.002;5.464;2023-12-20T03:30:19;101273.69;;;22.41;44.00
55187;BME280;55457;52.002;5.464;2023-12-20T03:32:45;101275.34;;;22.42;43.99
55187;BME280;55457;52.002;5.464;2023-12-20T03:35:10;101268.25;;;22.41;43.90
55187;BME280;55457;52.002;5.464;2023-12-20T03:37:36;101264.94;;;22.39;44.30
55187;BME280;55457;52.002;5.464;2023-12-20T03:40:02;101268.50;;;22.39;44.33
55187;BME280;55457;52.002;5.464;2023-12-20T03:42:28;101261.19;;;22.40;44.41
55187;BME280;55457;52.002;5.464;2023-12-20T03:44:53;101262.84;;;22.41;44.14
55187;BME280;55457;52.002;5.464;2023-12-20T03:47:18;101268.25;;;22.41;44.01
55187;BME280;55457;52.002;5.464;2023-12-20T03:49:44;101273.69;;;22.41;43.83
55187;BME280;55457;52.002;5.464;2023-12-20T03:52:09;101279.13;;;22.41;44.32
55187;BME280;55457;52.002;5.464;2023-12-20T03:54:38;101273.69;;;22.41;44.23
55187;BME280;55457;52.002;5.464;2023-12-20T03:57:03;101274.78;;;22.40;44.15
55187;BME280;55457;52.002;5.464;2023-12-20T03:59:29;101271.22;;;22.39;44.17
55187;BME280;55457;52.002;5.464;2023-12-20T04:01:55;101272.06;;;22.40;44.51
55187;BME280;55457;52.002;5.464;2023-12-20T04:04:20;101269.34;;;22.40;44.26
55187;BME280;55457;52.002;5.464;2023-12-20T04:06:45;101278.53;;;22.39;44.13
55187;BME280;55457;52.002;5.464;2023-12-20T04:09:11;101276.66;;;22.39;44.44
55187;BME280;55457;52.002;5.464;2023-12-20T04:11:37;101274.16;;;22.38;44.40
55187;BME280;55457;52.002;5.464;2023-12-20T04:14:02;101274.16;;;22.38;44.12
55187;BME280;55457;52.002;5.464;2023-12-20T04:16:27;101267.59;;;22.34;44.02
55187;BME280;55457;52.002;5.464;2023-12-20T04:18:52;101267.09;;;22.37;44.51
55187;BME280;55457;52.002;5.464;2023-12-20T04:21:18;101272.53;;;22.37;44.52
55187;BME280;55457;52.002;5.464;2023-12-20T04:23:43;101262.50;;;22.37;44.17
55187;BME280;55457;52.002;5.464;2023-12-20T04:26:09;101267.09;;;22.37;44.29
55187;BME280;55457;52.002;5.464;2023-12-20T04:28:34;101266.28;;;22.36;44.17
55187;BME280;55457;52.002;5.464;2023-12-20T04:30:59;101264.38;;;22.37;44.19
55187;BME280;55457;52.002;5.464;2023-12-20T04:33:25;101256.72;;;22.34;44.48
55187;BME280;55457;52.002;5.464;2023-12-20T04:35:50;101265.47;;;22.36;44.13
55187;BME280;55457;52.002;5.464;2023-12-20T04:38:15;101279.84;;;22.36;44.50
55187;BME280;55457;52.002;5.464;2023-12-20T04:40:41;101275.50;;;22.35;44.14
55187;BME280;55457;52.002;5.464;2023-12-20T04:43:07;101270.56;;;22.32;44.26
55187;BME280;55457;52.002;5.464;2023-12-20T04:45:32;101268.44;;;22.34;44.51
55187;BME280;55457;52.002;5.464;2023-12-20T04:47:58;101263.81;;;22.35;44.40
55187;BME280;55457;52.002;5.464;2023-12-20T04:50:23;101263.00;;;22.34;44.45
55187;BME280;55457;52.002;5.464;2023-12-20T04:52:48;101261.34;;;22.33;44.20
55187;BME280;55457;52.002;5.464;2023-12-20T04:55:14;101258.63;;;22.33;44.29
55187;BME280;55457;52.002;5.464;2023-12-20T04:57:39;101238.47;;;22.29;44.23
55187;BME280;55457;52.002;5.464;2023-12-20T05:00:05;101243.41;;;22.32;44.34
55187;BME280;55457;52.002;5.464;2023-12-20T05:02:31;101239.59;;;22.33;44.40
55187;BME280;55457;52.002;5.464;2023-12-20T05:04:56;101249.44;;;22.34;44.42
55187;BME280;55457;52.002;5.464;2023-12-20T05:07:21;101244.81;;;22.35;44.33
55187;BME280;55457;52.002;5.464;2023-12-20T05:09:47;101247.53;;;22.35;44.29
55187;BME280;55457;52.002;5.464;2023-12-20T05:12:12;101246.72;;;22.34;44.47
55187;BME280;55457;52.002;5.464;2023-12-20T05:14:37;101236.66;;;22.35;44.25
55187;BME280;55457;52.002;5.464;2023-12-20T05:17:03;101242.91;;;22.35;44.24
55187;BME280;55457;52.002;5.464;2023-12-20T05:19:28;101247.53;;;22.35;44.33
55187;BME280;55457;52.002;5.464;2023-12-20T05:21:54;101242.66;;;22.37;44.16
55187;BME280;55457;52.002;5.464;2023-12-20T05:24:19;101240.19;;;22.35;44.37
55187;BME280;55457;52.002;5.464;2023-12-20T05:26:44;101250.81;;;22.37;44.52
55187;BME280;55457;52.002;5.464;2023-12-20T05:29:10;101247.00;;;22.38;44.07
55187;BME280;55457;52.002;5.464;2023-12-20T05:31:35;101243.75;;;22.36;44.45
55187;BME280;55457;52.002;5.464;2023-12-20T05:34:00;101254.09;;;22.39;44.01
55187;BME280;55457;52.002;5.464;2023-12-20T05:36:26;101244.91;;;22.40;44.28
55187;BME280;55457;52.002;5.464;2023-12-20T05:38:51;101248.66;;;22.39;43.98
55187;BME280;55457;52.002;5.464;2023-12-20T05:41:16;101246.53;;;22.41;44.01
55187;BME280;55457;52.002;5.464;2023-12-20T05:43:41;101255.50;;;22.42;44.15
55187;BME280;55457;52.002;5.464;2023-12-20T05:46:07;101251.97;;;22.41;44.28
55187;BME280;55457;52.002;5.464;2023-12-20T05:48:32;101257.16;;;22.43;44.33
55187;BME280;55457;52.002;5.464;2023-12-20T05:50:57;101256.31;;;22.42;44.17
55187;BME280;55457;52.002;5.464;2023-12-20T05:53:23;101265.84;;;22.45;44.55
55187;BME280;55457;52.002;5.464;2023-12-20T05:55:48;101253.13;;;22.45;44.42
55187;BME280;55457;52.002;5.464;2023-12-20T05:58:13;101259.13;;;22.47;44.14
55187;BME280;55457;52.002;5.464;2023-12-20T06:00:39;101250.97;;;22.47;44.35
55187;BME280;55457;52.002;5.464;2023-12-20T06:03:04;101247.19;;;22.48;44.00
55187;BME280;55457;52.002;5.464;2023-12-20T06:05:30;101246.94;;;22.50;44.34
55187;BME280;55457;52.002;5.464;2023-12-20T06:07:56;101246.69;;;22.51;43.91
55187;BME280;55457;52.002;5.464;2023-12-20T06:10:26;101253.78;;;22.52;44.25
55187;BME280;55457;52.002;5.464;2023-12-20T06:12:52;101238.78;;;22.50;44.23
55187;BME280;55457;52.002;5.464;2023-12-20T06:15:17;101245.63;;;22.52;44.09
55187;BME280;55457;52.002;5.464;2023-12-20T06:17:42;101239.72;;;22.55;43.94
55187;BME280;55457;52.002;5.464;2023-12-20T06:20:08;101246.53;;;22.58;44.15
55187;BME280;55457;52.002;5.464;2023-12-20T06:22:35;101240.28;;;22.57;44.12
55187;BME280;55457;52.002;5.464;2023-12-20T06:25:00;101242.72;;;22.59;43.67
55187;BME280;55457;52.002;5.464;2023-12-20T06:27:26;101248.16;;;22.59;44.06
55187;BME280;55457;52.002;5.464;2023-12-20T06:29:51;101253.38;;;22.60;44.11
55187;BME280;55457;52.002;5.464;2023-12-20T06:32:16;101244.13;;;22.61;43.88
55187;BME280;55457;52.002;5.464;2023-12-20T06:34:42;101254.19;;;22.61;43.96
55187;BME280;55457;52.002;5.464;2023-12-20T06:37:07;101242.50;;;22.60;43.67
55187;BME280;55457;52.002;5.464;2023-12-20T06:39:32;101238.94;;;22.60;43.88
55187;BME280;55457;52.002;5.464;2023-12-20T06:41:59;101246.03;;;22.61;43.85
55187;BME280;55457;52.002;5.464;2023-12-20T06:44:24;101246.84;;;22.61;43.83
55187;BME280;55457;52.002;5.464;2023-12-20T06:46:50;101235.16;;;22.61;43.85
55187;BME280;55457;52.002;5.464;2023-12-20T06:49:15;101227.25;;;22.59;43.65
55187;BME280;55457;52.002;5.464;2023-12-20T06:51:40;101233.50;;;22.60;43.81
55187;BME280;55457;52.002;5.464;2023-12-20T06:54:06;101241.41;;;22.61;43.75
55187;BME280;55457;52.002;5.464;2023-12-20T06:56:32;101239.78;;;22.60;43.51
55187;BME280;55457;52.002;5.464;2023-12-20T06:58:57;101247.09;;;22.60;43.86
55187;BME280;55457;52.002;5.464;2023-12-20T07:01:23;101235.41;;;22.59;43.83
55187;BME280;55457;52.002;5.464;2023-12-20T07:03:48;101239.78;;;22.60;43.75
55187;BME280;55457;52.002;5.464;2023-12-20T07:06:13;101223.72;;;22.59;43.66
55187;BME280;55457;52.002;5.464;2023-12-20T07:08:41;101237.06;;;22.60;43.84
55187;BME280;55457;52.002;5.464;2023-12-20T07:11:06;101220.69;;;22.55;43.66
55187;BME280;55457;52.002;5.464;2023-12-20T07:13:32;101227.03;;;22.61;43.83
55187;BME280;55457;52.002;5.464;2023-12-20T07:15:57;101229.75;;;22.61;43.69
55187;BME280;55457;52.002;5.464;2023-12-20T07:18:22;101218.88;;;22.61;43.86
55187;BME280;55457;52.002;5.464;2023-12-20T07:20:48;101223.47;;;22.60;43.82
55187;BME280;55457;52.002;5.464;2023-12-20T07:23:13;101215.34;;;22.60;43.56
55187;BME280;55457;52.002;5.464;2023-12-20T07:25:38;101218.06;;;22.60;43.65
55187;BME280;55457;52.002;5.464;2023-12-20T07:28:04;101216.38;;;22.59;43.52
55187;BME280;55457;52.002;5.464;2023-12-20T07:30:30;101217.19;;;22.60;43.62
55187;BME280;55457;52.002;5.464;2023-12-20T07:32:55;101209.31;;;22.58;43.51
55187;BME280;55457;52.002;5.464;2023-12-20T07:35:20;101207.66;;;22.57;43.67
55187;BME280;55457;52.002;5.464;2023-12-20T07:37:46;101206.34;;;22.60;43.81
55187;BME280;55457;52.002;5.464;2023-12-20T07:40:11;101216.38;;;22.59;43.64
55187;BME280;55457;52.002;5.464;2023-12-20T07:42:36;101210.13;;;22.59;43.67
55187;BME280;55457;52.002;5.464;2023-12-20T07:45:03;101212.63;;;22.60;43.25
55187;BME280;55457;52.002;5.464;2023-12-20T07:47:28;101212.63;;;22.60;43.70
55187;BME280;55457;52.002;5.464;2023-12-20T07:49:53;101212.63;;;22.60;43.52
55187;BME280;55457;52.002;5.464;2023-12-20T07:52:19;101219.09;;;22.59;43.51
55187;BME280;55457;52.002;5.464;2023-12-20T07:54:45;101220.78;;;22.60;43.49
55187;BME280;55457;52.002;5.464;2023-12-20T07:57:11;101218.28;;;22.59;43.33
55187;BME280;55457;52.002;5.464;2023-12-20T07:59:36;101235.41;;;22.59;43.44
55187;BME280;55457;52.002;5.464;2023-12-20T08:02:01;101248.97;;;22.59;43.44
55187;BME280;55457;52.002;5.464;2023-12-20T08:04:27;101243.53;;;22.59;43.26
55187;BME280;55457;52.002;5.464;2023-12-20T08:06:52;101248.16;;;22.59;43.32
55187;BME280;55457;52.002;5.464;2023-12-20T08:09:18;101252.78;;;22.58;43.25
55187;BME280;55457;52.002;5.464;2023-12-20T08:11:48;101250.06;;;22.58;43.16
55187;BME280;55457;52.002;5.464;2023-12-20T08:14:13;101248.16;;;22.59;43.65
55187;BME280;55457;52.002;5.464;2023-12-20T08:16:39;101236.47;;;22.58;43.52
55187;BME280;55457;52.002;5.464;2023-12-20T08:19:04;101240.28;;;22.57;43.22
55187;BME280;55457;52.002;5.464;2023-12-20T08:21:30;101231.56;;;22.55;43.50
55187;BME280;55457;52.002;5.464;2023-12-20T08:23:55;101243.81;;;22.58;43.60
55187;BME280;55457;52.002;5.464;2023-12-20T08:26:21;101234.00;;;22.57;43.37
55187;BME280;55457;52.002;5.464;2023-12-20T08:28:48;101220.69;;;22.55;43.41
55187;BME280;55457;52.002;5.464;2023-12-20T08:31:17;101230.72;;;22.55;43.76
55187;BME280;55457;52.002;5.464;2023-12-20T08:33:47;101225.28;;;22.55;43.65
55187;BME280;55457;52.002;5.464;2023-12-20T08:36:13;101230.47;;;22.56;43.55
55187;BME280;55457;52.002;5.464;2023-12-20T08:38:39;101230.22;;;22.58;44.15
55187;BME280;55457;52.002;5.464;2023-12-20T08:41:05;101233.75;;;22.58;43.85
55187;BME280;55457;52.002;5.464;2023-12-20T08:43:39;101223.97;;;22.57;43.92
55187;BME280;55457;52.002;5.464;2023-12-20T08:46:08;101229.41;;;22.57;43.88
55187;BME280;55457;52.002;5.464;2023-12-20T08:48:34;101231.56;;;22.55;43.58
55187;BME280;55457;52.002;5.464;2023-12-20T08:51:00;101223.16;;;22.57;43.46
55187;BME280;55457;52.002;5.464;2023-12-20T08:53:25;101238.84;;;22.55;43.47
55187;BME280;55457;52.002;5.464;2023-12-20T08:55:50;101236.13;;;22.55;43.90
55187;BME280;55457;52.002;5.464;2023-12-20T08:58:16;101237.00;;;22.55;43.75
55187;BME280;55457;52.002;5.464;2023-12-20T09:00:42;101229.88;;;22.54;43.73
55187;BME280;55457;52.002;5.464;2023-12-20T09:03:07;101236.41;;;22.53;43.70
55187;BME280;55457;52.002;5.464;2023-12-20T09:05:33;101219.03;;;22.54;43.39
55187;BME280;55457;52.002;5.464;2023-12-20T09:07:58;101233.19;;;22.56;43.71
55187;BME280;55457;52.002;5.464;2023-12-20T09:10:23;101217.72;;;22.57;43.69
55187;BME280;55457;52.002;5.464;2023-12-20T09:12:52;101218.53;;;22.57;43.85
55187;BME280;55457;52.002;5.464;2023-12-20T09:15:26;101222.34;;;22.56;44.17
55187;BME280;55457;52.002;5.464;2023-12-20T09:17:52;101225.53;;;22.53;42.20
55187;BME280;55457;52.002;5.464;2023-12-20T09:20:17;101223.25;;;22.45;42.25
55187;BME280;55457;52.002;5.464;2023-12-20T09:22:43;101223.72;;;22.42;43.52
55187;BME280;55457;52.002;5.464;2023-12-20T09:25:10;101211.50;;;22.39;43.98
55187;BME280;55457;52.002;5.464;2023-12-20T09:27:35;101209.00;;;22.38;44.70
55187;BME280;55457;52.002;5.464;2023-12-20T09:30:01;101214.44;;;22.38;44.91
55187;BME280;55457;52.002;5.464;2023-12-20T09:32:26;101213.13;;;22.40;45.19
55187;BME280;55457;52.002;5.464;2023-12-20T09:34:51;101218.56;;;22.40;45.31
55187;BME280;55457;52.002;5.464;2023-12-20T09:37:17;101219.38;;;22.41;45.50
55187;BME280;55457;52.002;5.464;2023-12-20T09:39:42;101216.41;;;22.43;45.32
55187;BME280;55457;52.002;5.464;2023-12-20T09:42:07;101214.78;;;22.42;45.63
55187;BME280;55457;52.002;5.464;2023-12-20T09:44:33;101218.03;;;22.44;45.25
55187;BME280;55457;52.002;5.464;2023-12-20T09:47:03;101224.31;;;22.44;45.23
55187;BME280;55457;52.002;5.464;2023-12-20T09:49:30;101232.22;;;22.46;45.81
55187;BME280;55457;52.002;5.464;2023-12-20T09:51:56;101235.75;;;22.46;45.53
55187;BME280;55457;52.002;5.464;2023-12-20T09:54:22;101231.16;;;22.47;45.73
55187;BME280;55457;52.002;5.464;2023-12-20T09:56:48;101226.53;;;22.47;45.69
55187;BME280;55457;52.002;5.464;2023-12-20T09:59:14;101228.16;;;22.48;45.22
55187;BME280;55457;52.002;5.464;2023-12-20T10:01:40;101223.81;;;22.47;45.33
55187;BME280;55457;52.002;5.464;2023-12-20T10:04:07;101228.44;;;22.47;45.47
55187;BME280;55457;52.002;5.464;2023-12-20T10:06:41;101237.13;;;22.49;45.82
55187;BME280;55457;52.002;5.464;2023-12-20T10:09:06;101242.56;;;22.49;45.34
55187;BME280;55457;52.002;5.464;2023-12-20T10:11:32;101244.22;;;22.50;45.69
55187;BME280;55457;52.002;5.464;2023-12-20T10:14:00;101233.03;;;22.46;45.47
55187;BME280;55457;52.002;5.464;2023-12-20T10:16:27;101245.06;;;22.50;45.46
55187;BME280;55457;52.002;5.464;2023-12-20T10:18:54;101244.22;;;22.50;45.45
55187;BME280;55457;52.002;5.464;2023-12-20T10:21:20;101235.84;;;22.51;45.19
55187;BME280;55457;52.002;5.464;2023-12-20T10:23:46;101235.84;;;22.51;45.52
55187;BME280;55457;52.002;5.464;2023-12-20T10:26:25;101224.97;;;22.51;45.19
55187;BME280;55457;52.002;5.464;2023-12-20T10:28:53;101230.41;;;22.51;45.51
55187;BME280;55457;52.002;5.464;2023-12-20T10:31:34;101223.88;;;22.52;45.16
55187;BME280;55457;52.002;5.464;2023-12-20T10:34:01;101234.75;;;22.52;45.52
55187;BME280;55457;52.002;5.464;2023-12-20T10:36:31;101233.94;;;22.52;45.46
55187;BME280;55457;52.002;5.464;2023-12-20T10:38:57;101235.84;;;22.51;45.17
55187;BME280;55457;52.002;5.464;2023-12-20T10:41:30;101231.72;;;22.49;45.42
55187;BME280;55457;52.002;5.464;2023-12-20T10:44:01;101224.97;;;22.51;45.60
55187;BME280;55457;52.002;5.464;2023-12-20T10:46:27;101227.44;;;22.53;45.71
55187;BME280;55457;52.002;5.464;2023-12-20T10:48:54;101226.59;;;22.52;45.39
55187;BME280;55457;52.002;5.464;2023-12-20T10:51:21;101224.16;;;22.51;45.38
55187;BME280;55457;52.002;5.464;2023-12-20T10:53:48;101202.41;;;22.51;45.54
55187;BME280;55457;52.002;5.464;2023-12-20T10:56:18;101205.38;;;22.49;45.54
55187;BME280;55457;52.002;5.464;2023-12-20T10:58:45;101218.72;;;22.51;45.38
55187;BME280;55457;52.002;5.464;2023-12-20T11:01:16;101210.78;;;22.49;45.38
55187;BME280;55457;52.002;5.464;2023-12-20T11:03:49;101198.03;;;22.50;44.91
55187;BME280;55457;52.002;5.464;2023-12-20T11:12:12;101191.78;;;22.49;45.40
55187;BME280;55457;52.002;5.464;2023-12-20T11:14:46;101196.41;;;22.49;45.20
55187;BME280;55457;52.002;5.464;2023-12-20T11:17:12;101188.50;;;22.47;45.16
55187;BME280;55457;52.002;5.464;2023-12-20T11:22:21;101194.50;;;22.49;45.39
55187;BME280;55457;52.002;5.464;2023-12-20T11:24:49;101194.50;;;22.49;45.55
55187;BME280;55457;52.002;5.464;2023-12-20T11:27:15;101185.78;;;22.47;45.45
55187;BME280;55457;52.002;5.464;2023-12-20T11:29:41;101184.97;;;22.47;45.29
55187;BME280;55457;52.002;5.464;2023-12-20T11:34:59;101184.97;;;22.47;45.57
55187;BME280;55457;52.002;5.464;2023-12-20T11:37:32;101173.28;;;22.46;45.21
55187;BME280;55457;52.002;5.464;2023-12-20T11:40:05;101169.97;;;22.44;45.25
55187;BME280;55457;52.002;5.464;2023-12-20T11:42:39;101177.09;;;22.45;45.27
55187;BME280;55457;52.002;5.464;2023-12-20T11:45:05;101160.78;;;22.45;45.49
55187;BME280;55457;52.002;5.464;2023-12-20T11:47:31;101168.34;;;22.43;45.44
55187;BME280;55457;52.002;5.464;2023-12-20T11:49:57;101166.22;;;22.45;45.46
55187;BME280;55457;52.002;5.464;2023-12-20T11:52:22;101171.66;;;22.45;45.42
55187;BME280;55457;52.002;5.464;2023-12-20T11:54:48;101160.78;;;22.45;45.35
55187;BME280;55457;52.002;5.464;2023-12-20T11:57:13;101154.50;;;22.45;45.31
55187;BME280;55457;52.002;5.464;2023-12-20T11:59:39;101156.19;;;22.46;45.31
55187;BME280;55457;52.002;5.464;2023-12-20T12:02:04;101151.56;;;22.46;45.49
55187;BME280;55457;52.002;5.464;2023-12-20T12:04:29;101154.03;;;22.48;45.29
55187;BME280;55457;52.002;5.464;2023-12-20T12:06:55;101142.34;;;22.47;45.26
55187;BME280;55457;52.002;5.464;2023-12-20T12:09:20;101146.13;;;22.46;45.40
55187;BME280;55457;52.002;5.464;2023-12-20T12:11:45;101141.53;;;22.47;45.39
55187;BME280;55457;52.002;5.464;2023-12-20T12:14:11;101150.41;;;22.42;45.33
55187;BME280;55457;52.002;5.464;2023-12-20T12:16:36;101145.81;;;22.43;45.56
55187;BME280;55457;52.002;5.464;2023-12-20T12:19:02;101155.34;;;22.45;45.63
55187;BME280;55457;52.002;5.464;2023-12-20T12:21:27;101157.00;;;22.46;45.27
55187;BME280;55457;52.002;5.464;2023-12-20T12:23:53;101154.50;;;22.45;45.50
55187;BME280;55457;52.002;5.464;2023-12-20T12:26:18;101149.94;;;22.45;45.23
55187;BME280;55457;52.002;5.464;2023-12-20T12:28:44;101157.00;;;22.46;45.53
55187;BME280;55457;52.002;5.464;2023-12-20T12:31:13;101149.41;;;22.48;45.01
55187;BME280;55457;52.002;5.464;2023-12-20T12:33:40;101144.78;;;22.49;45.45
55187;BME280;55457;52.002;5.464;2023-12-20T12:36:07;101133.94;;;22.49;45.52
55187;BME280;55457;52.002;5.464;2023-12-20T12:38:33;101127.69;;;22.48;45.38
55187;BME280;55457;52.002;5.464;2023-12-20T12:40:59;101123.88;;;22.49;45.69
55187;BME280;55457;52.002;5.464;2023-12-20T12:43:25;101123.88;;;22.49;45.52
55187;BME280;55457;52.002;5.464;2023-12-20T12:45:51;101123.06;;;22.49;45.27
55187;BME280;55457;52.002;5.464;2023-12-20T12:48:16;101115.50;;;22.51;45.52
55187;BME280;55457;52.002;5.464;2023-12-20T12:50:41;101126.38;;;22.51;45.21
55187;BME280;55457;52.002;5.464;2023-12-20T12:53:07;101115.50;;;22.51;45.34
55187;BME280;55457;52.002;5.464;2023-12-20T12:55:33;101115.25;;;22.52;45.20